• Join FlightAware (Why Join?)
  • Login
  • US Flag 
07:48AM EDT


 

Airport Tracker/Info


-or-


 

Live Flight TrackerFlight Track Log ✈ UAL3849 ✈ 08-May-2013 ✈ KCLE - KIAD

Flight Track Log - Related Links

Times and Time Zones

All times are in EDT time to prevent confusion due to time zone crossing. See the UAL3849 flight status page for this flight to view local times or setup timezone preferences in your user account.

Time Position Orientation Groundspeed Altitude Reporting Facility
EDT Latitude Longitude Course Direction KTS MPH feet Rate Location/Type
05:32PM 41.4131 -81.8400 166° South 163 188 1,700  Level Cleveland Center
05:33PM 41.4181 -81.7683 85° East 224 258 3,800 2,160 Climbing Cleveland Center
05:34PM 41.4208 -81.6992 87° East 238 274 5,700 2,580 Climbing Cleveland Center
05:35PM 41.3925 -81.6211 116° Southeast 238 274 8,500 2,220 Climbing Cleveland Center
05:36PM 41.3431 -81.5400 129° Southeast 252 290 10,200 1,260 Climbing Cleveland Center
05:37PM 41.1386 -81.2926 127° Southeast  Level FlightAware Approximate
05:37PM 41.2772 -81.4506 134° Southeast 294 338 11,100  Level Cleveland Center
05:38PM 41.0812 -81.1937 166° South  Level FlightAware Approximate
05:38PM 41.2153 -81.3617 133° Southeast 338 389 12,500  Level Cleveland Center
05:39PM 41.1492 -81.2642 132° Southeast 357 411 14,500 1,920 Climbing Cleveland Center
05:40PM 41.0767 -81.1808 139° Southeast 352 405 16,400 1,500 Climbing Cleveland Center
05:41PM 40.9914 -81.1058 146° Southeast 359 413 17,600 1,080 Climbing Cleveland Center
05:42PM 40.8939 -81.0144 145° Southeast 375 432 18,600 1,200 Climbing Cleveland Center
05:43PM 40.8025 -80.9342 146° Southeast 389 448 20,000 1,500 Climbing Cleveland Center
05:44PM 40.7069 -80.8542 148° Southeast 399 459 21,600 1,500 Climbing Cleveland Center
05:45PM 40.6069 -80.8264 168° South 399 459 23,100 1,260 Climbing Cleveland Center
05:46PM 40.4964 -80.7933 167° South 405 466 24,200 1,020 Climbing Cleveland Center
05:47PM 40.3839 -80.7575 166° South 415 478 25,200 900 Climbing Cleveland Center
05:48PM 40.2692 -80.7272 169° South 415 478 26,100 900 Climbing Cleveland Center
05:49PM 40.1547 -80.6972 169° South 420 483 27,000 420 Climbing Cleveland Center
05:50PM 40.0339 -80.6644 168° South 433 498 27,000  Level Cleveland Center
05:51PM 39.9169 -80.6292 167° South 433 498 27,000  Level Cleveland Center
05:52PM 39.8044 -80.5911 165° South 428 493 27,000  Level Cleveland Center
05:53PM 39.7294 -80.4858 133° Southeast 389 448 27,000  Level Cleveland Center
05:54PM 39.6958 -80.3483 108° East 371 427 27,000  Level Cleveland Center
05:55PM 39.6642 -80.2083 106° East 383 441 27,000  Level Cleveland Center
05:56PM 39.6214 -80.0314 107° East 407 468 27,000  Level Washington Center
05:57PM 39.5872 -79.8867 107° East 413 475 27,000  Level Washington Center
05:58PM 39.5544 -79.7475 107° East 413 475 27,000  Level Washington Center
05:59PM 39.5178 -79.6053 108° East 413 475 27,000  Level Washington Center
06:00PM 39.4869 -79.4611 105° East 413 475 27,000 -240 Level Washington Center
06:01PM 39.4639 -79.3308 103° East 413 475 26,600 -900 Descending Washington Center
06:02PM 39.4356 -79.1736 103° East 413 475 25,200 -1,860 Descending Washington Center
06:03PM 39.4083 -79.0325 104° East 408 470 23,000 -2,160 Descending Washington Center
06:04PM 39.3850 -78.8997 103° East 391 450 21,000 -1,800 Descending Washington Center
06:05PM 39.3647 -78.7969 104° East 384 442 19,400 -1,980 Descending Washington Center
06:06PM 39.3375 -78.6428 103° East 377 434 17,100 -2,160 Descending Washington Center
06:07PM 39.3156 -78.5183 103° East 366 421 15,100 -1,920 Descending Washington Center
06:08PM 39.2933 -78.3967 103° East 353 406 13,300 -1,800 Descending Washington Center
06:09PM 39.2564 -78.2908 114° Southeast 340 391 11,500 -1,740 Descending Washington Center
06:10PM 39.2397 -78.1883 102° East 313 360 9,900 -1,740 Descending Washington Center
06:11PM 39.2272 -78.0914 99° East 284 327 8,100 -1,500 Descending Washington Center
06:12PM 39.2372 -78.0114 81° East 269 310 6,900 -1,380 Descending Washington Center
06:13PM 39.2492 -77.9261 80° East 242 278 5,400 -1,020 Descending Washington Center
06:14PM 39.2636 -77.8381 78° East 242 278 5,000 -420 Descending Washington Center
06:15PM 39.2567 -77.7519 96° East 237 273 4,600 -540 Descending Washington Center
06:16PM 39.2456 -77.6686 100° East 232 267 4,000 -660 Descending Washington Center
06:17PM 39.2333 -77.5833 100° East 244 281 3,500 -540 Descending Potomac TRACON
06:18PM 39.2333 -77.5000 90° East 231 266 3,100 -240 Descending Potomac TRACON
06:19PM 39.1833 -77.4667 153° Southeast 187 215 3,100 -120 Level Potomac TRACON
06:20PM 39.1333 -77.4667 180° South 180 207 2,900 -240 Descending Potomac TRACON